Silver Creek Plunge, Idaho
Current Conditions -  °F | °C
As of 4:53 AM on Monday 20 Oct 2014 (Local Time) from KBOI Reporting Station
Clear Clear  
Wind Chill: 55°   Ceiling: Unl
Heat Index: 55°   Visibility: 10mi
Dew Point: 31°   Wind: 8mph
Humidity: 40%   Direction: 140°SE
Pressure: 29.85"   Gusts: NA
Location:  44.07°N, 115.488°W
Report Text: KBOI 201053Z 14007KT 10SM CLR 13/M01 A2985 RMK AO2 SLP087 T01281006
Loading
Personal Weather Stations






























Interactive Weather Map
Tropical Storm Tracking
New forecast layout! Learn more

10-Day Weather Forecast

Advertisements
Track Severe Weather on mobile